Time;durP1;ratioP1;P1;durP2;ratioP2;P2;SDS_P1;SDS_P2;PMS_P1;PMS_P2;Temp;Humidity;BMP_temperature;BMP_pressure;BME280_temperature;BME280_humidity;BME280_pressure;Samples;Min_cycle;Max_cycle;Signal;HPM_P1;HPM_P2
2021/06/14 00:01:18;;;;;;;7.20;3.87;;;15.80;97.30;;;;;;5262213;27;20126;-61
2021/06/14 00:03:44;;;;;;;6.77;4.27;;;15.80;97.10;;;;;;5261928;27;20120;-60
2021/06/14 00:06:11;;;;;;;7.20;4.20;;;15.80;97.00;;;;;;5261220;27;20142;-60
2021/06/14 00:08:41;;;;;;;5.43;3.73;;;15.70;98.10;;;;;;5261074;27;20108;-60
2021/06/14 00:11:12;;;;;;;8.00;4.40;;;15.60;97.40;;;;;;5262587;27;20111;-61
2021/06/14 00:13:39;;;;;;;10.00;4.60;;;15.60;97.80;;;;;;5261010;27;20115;-60
2021/06/14 00:16:07;;;;;;;6.57;4.53;;;15.50;97.70;;;;;;5261917;27;20126;-60
2021/06/14 00:18:37;;;;;;;9.33;4.07;;;15.50;98.20;;;;;;5261040;27;20107;-60
2021/06/14 00:21:07;;;;;;;6.17;3.93;;;15.50;97.90;;;;;;5262957;27;20135;-60
2021/06/14 00:23:34;;;;;;;7.23;4.27;;;15.40;98.10;;;;;;5256390;27;97668;-59
2021/06/14 00:26:09;;;;;;;10.03;4.80;;;15.40;98.10;;;;;;5262853;27;20104;-60
2021/06/14 00:28:36;;;;;;;5.20;3.57;;;15.40;98.20;;;;;;5262903;27;20130;-60
2021/06/14 00:31:03;;;;;;;7.20;3.90;;;15.30;98.40;;;;;;5260620;27;20139;-60
2021/06/14 00:33:30;;;;;;;5.77;3.80;;;15.30;98.40;;;;;;5262685;27;20157;-61
2021/06/14 00:35:59;;;;;;;7.23;4.10;;;15.30;98.00;;;;;;5261144;27;20133;-61
2021/06/14 00:38:28;;;;;;;7.77;4.70;;;15.20;98.20;;;;;;5260439;27;20107;-60
2021/06/14 00:40:55;;;;;;;9.70;4.73;;;15.20;98.50;;;;;;5261185;27;20108;-60
2021/06/14 00:43:22;;;;;;;7.87;4.53;;;15.20;98.40;;;;;;5263055;27;20126;-60
2021/06/14 00:45:51;;;;;;;8.03;4.03;;;15.20;99.20;;;;;;5262196;27;20108;-61
2021/06/14 00:48:19;;;;;;;9.87;4.70;;;15.20;98.40;;;;;;5260501;27;20122;-60
2021/06/14 00:50:48;;;;;;;8.07;4.83;;;15.10;98.70;;;;;;5260583;27;20115;-60
2021/06/14 00:53:18;;;;;;;10.30;4.90;;;15.10;99.00;;;;;;5262180;27;20107;-60
2021/06/14 00:55:45;;;;;;;7.63;4.67;;;15.10;98.60;;;;;;5261694;27;20103;-60
2021/06/14 00:58:12;;;;;;;8.87;4.70;;;15.00;98.80;;;;;;5262065;27;20110;-61
2021/06/14 01:00:39;;;;;;;8.17;4.40;;;15.00;99.50;;;;;;5261363;27;20096;-60
2021/06/14 01:03:07;;;;;;;6.70;3.93;;;15.00;99.00;;;;;;5261900;27;20107;-60
2021/06/14 01:05:38;;;;;;;6.77;4.60;;;14.90;99.40;;;;;;5261371;27;20405;-61
2021/06/14 01:08:06;;;;;;;8.80;4.73;;;14.90;99.00;;;;;;5264065;27;20122;-61
2021/06/14 01:10:36;;;;;;;6.30;4.40;;;14.80;99.40;;;;;;5261985;27;20126;-60
2021/06/14 01:13:12;;;;;;;8.97;5.27;;;14.80;99.40;;;;;;5262210;27;20111;-61
2021/06/14 01:15:50;;;;;;;8.77;4.67;;;14.80;99.50;;;;;;5261045;27;20107;-61
2021/06/14 01:18:23;;;;;;;6.20;4.37;;;14.80;99.80;;;;;;5261499;27;20107;-61
2021/06/14 01:21:04;;;;;;;9.73;4.67;;;14.70;99.30;;;;;;5261414;27;20151;-60
2021/06/14 01:24:02;;;;;;;7.80;4.50;;;14.80;99.90;;;;;;5260933;27;20107;-61
2021/06/14 01:26:37;;;;;;;10.63;4.87;;;14.70;99.90;;;;;;5262943;27;20459;-60
2021/06/14 01:29:07;;;;;;;7.27;4.43;;;14.70;99.90;;;;;;5261603;27;20111;-61
2021/06/14 01:31:38;;;;;;;8.67;4.30;;;14.70;99.90;;;;;;5261485;27;20107;-60
2021/06/14 01:34:06;;;;;;;8.60;4.40;;;14.60;99.90;;;;;;5261465;27;20127;-60
2021/06/14 01:36:37;;;;;;;7.53;4.83;;;14.60;99.90;;;;;;5264102;27;20108;-61
2021/06/14 01:39:05;;;;;;;8.07;4.50;;;14.60;99.90;;;;;;5263150;27;20107;-61
2021/06/14 01:41:33;;;;;;;8.97;4.80;;;14.50;99.90;;;;;;5261591;27;20153;-61
2021/06/14 01:44:03;;;;;;;5.90;4.17;;;14.50;99.90;;;;;;5263781;27;20106;-60
2021/06/14 01:46:38;;;;;;;10.03;4.83;;;14.50;99.90;;;;;;5261600;27;20106;-61
2021/06/14 01:49:07;;;;;;;7.63;4.57;;;14.50;99.90;;;;;;5262958;27;20413;-61
2021/06/14 01:51:37;;;;;;;9.97;4.83;;;14.50;99.90;;;;;;5263901;27;20108;-61
2021/06/14 01:54:05;;;;;;;8.87;4.90;;;14.40;99.90;;;;;;5261042;27;20104;-59
2021/06/14 01:56:37;;;;;;;9.00;4.70;;;14.40;99.90;;;;;;5261291;27;20150;-62
2021/06/14 01:59:06;;;;;;;7.07;4.57;;;14.40;99.90;;;;;;5263750;27;20107;-61
2021/06/14 02:01:35;;;;;;;8.43;4.50;;;14.40;99.90;;;;;;5261799;27;20571;-62
2021/06/14 02:04:03;;;;;;;9.77;5.13;;;14.40;99.90;;;;;;5262570;27;20531;-60
2021/06/14 02:06:37;;;;;;;7.87;4.83;;;14.40;99.90;;;;;;5261910;27;20107;-60
2021/06/14 02:09:08;;;;;;;7.93;4.93;;;14.40;99.90;;;;;;5261954;27;20435;-61
2021/06/14 02:11:36;;;;;;;8.17;5.07;;;14.40;99.90;;;;;;5260911;27;20122;-61
2021/06/14 02:14:04;;;;;;;7.70;5.10;;;14.30;99.90;;;;;;5262015;27;20188;-61
2021/06/14 02:16:38;;;;;;;12.00;5.57;;;14.20;99.90;;;;;;5263623;27;20550;-59
2021/06/14 02:19:07;;;;;;;7.63;4.67;;;14.30;99.90;;;;;;5261680;27;20108;-59
2021/06/14 02:21:35;;;;;;;7.90;4.93;;;14.30;99.90;;;;;;5261180;27;20122;-61
2021/06/14 02:24:02;;;;;;;8.77;5.00;;;14.30;99.90;;;;;;5262515;27;20158;-62
2021/06/14 02:26:32;;;;;;;9.00;4.43;;;14.20;99.90;;;;;;5262426;27;20126;-61
2021/06/14 02:29:00;;;;;;;7.87;5.17;;;14.20;99.90;;;;;;5260636;27;20482;-60
2021/06/14 02:31:29;;;;;;;8.87;5.40;;;14.20;99.90;;;;;;5261351;27;20134;-59
2021/06/14 02:34:00;;;;;;;9.53;5.47;;;14.20;99.90;;;;;;5263789;27;20104;-59
2021/06/14 02:36:27;;;;;;;9.83;4.60;;;14.10;99.90;;;;;;5263530;27;20516;-59
2021/06/14 02:38:54;;;;;;;10.67;5.80;;;14.10;99.90;;;;;;5263633;27;20127;-60
2021/06/14 02:41:22;;;;;;;8.47;4.80;;;14.10;99.90;;;;;;5260923;27;20119;-60
2021/06/14 02:43:51;;;;;;;9.13;5.63;;;14.10;99.90;;;;;;5261194;27;20100;-62
2021/06/14 02:46:19;;;;;;;9.30;4.77;;;14.00;99.90;;;;;;5261181;27;20536;-61
2021/06/14 02:48:49;;;;;;;10.30;5.20;;;14.00;99.90;;;;;;5261949;27;20133;-60
2021/06/14 02:51:19;;;;;;;6.87;4.97;;;14.00;99.90;;;;;;5261025;27;20103;-59
2021/06/14 02:54:03;;;;;;;7.23;5.40;;;14.00;99.90;;;;;;5263535;27;20122;-61
2021/06/14 02:56:31;;;;;;;8.83;5.03;;;14.00;99.90;;;;;;5261350;27;20145;-60
2021/06/14 02:58:58;;;;;;;9.03;5.47;;;14.00;99.90;;;;;;5262894;27;20107;-60
2021/06/14 03:01:26;;;;;;;9.27;5.67;;;13.90;99.90;;;;;;5262126;27;20516;-60
2021/06/14 03:03:56;;;;;;;7.47;4.67;;;13.90;99.90;;;;;;5261048;27;20146;-60
2021/06/14 03:06:25;;;;;;;9.73;5.87;;;13.90;99.90;;;;;;5261089;27;20509;-60
2021/06/14 03:08:53;;;;;;;9.13;6.00;;;13.90;99.90;;;;;;5261012;27;20150;-61
2021/06/14 03:11:25;;;;;;;10.10;5.87;;;13.90;99.90;;;;;;5260786;27;20118;-60
2021/06/14 03:13:53;;;;;;;8.57;6.23;;;13.90;99.90;;;;;;5261102;27;20523;-61
2021/06/14 03:16:23;;;;;;;10.37;5.93;;;13.90;99.90;;;;;;5260979;27;20103;-60
2021/06/14 03:18:52;;;;;;;9.50;5.33;;;13.90;99.90;;;;;;5261441;27;20563;-61
2021/06/14 03:21:22;;;;;;;12.10;6.70;;;13.90;99.90;;;;;;5261067;27;20108;-61
2021/06/14 03:23:51;;;;;;;11.97;7.57;;;13.90;99.90;;;;;;5260591;27;20183;-60
2021/06/14 03:26:20;;;;;;;10.60;6.63;;;13.90;99.90;;;;;;5260977;27;20545;-60
2021/06/14 03:28:48;;;;;;;18.43;7.37;;;13.90;99.90;;;;;;5261163;27;20177;-61
2021/06/14 03:31:17;;;;;;;15.83;8.90;;;13.80;99.90;;;;;;5262091;27;20512;-60
2021/06/14 03:33:50;;;;;;;13.47;7.63;;;13.80;99.90;;;;;;5260489;27;20122;-61
2021/06/14 03:36:19;;;;;;;11.13;6.90;;;13.90;99.90;;;;;;5260981;27;20122;-61
2021/06/14 03:38:46;;;;;;;10.27;7.30;;;13.80;99.90;;;;;;5261247;27;20138;-61
2021/06/14 03:41:15;;;;;;;11.70;7.23;;;13.90;99.90;;;;;;5262933;27;20588;-61
2021/06/14 03:43:45;;;;;;;9.97;6.40;;;13.80;99.90;;;;;;5260667;27;20119;-61
2021/06/14 03:46:13;;;;;;;13.40;7.43;;;13.80;99.90;;;;;;5261007;27;20122;-61
2021/06/14 03:48:40;;;;;;;11.67;7.63;;;13.80;99.90;;;;;;5260619;27;20125;-61
2021/06/14 03:51:07;;;;;;;11.37;7.87;;;13.80;99.90;;;;;;5260890;27;20130;-61
2021/06/14 03:53:34;;;;;;;10.23;6.50;;;13.90;99.90;;;;;;5261084;27;20150;-61
2021/06/14 03:56:02;;;;;;;10.80;6.67;;;13.90;99.90;;;;;;5262235;27;20433;-60
2021/06/14 03:58:30;;;;;;;10.93;7.13;;;13.90;99.90;;;;;;5260689;27;20574;-61
2021/06/14 04:00:58;;;;;;;11.03;6.93;;;13.90;99.90;;;;;;5260565;27;20131;-60
2021/06/14 04:03:27;;;;;;;10.13;6.20;;;14.00;99.90;;;;;;5260516;27;20116;-61
2021/06/14 04:05:55;;;;;;;11.47;6.40;;;14.00;99.90;;;;;;5260639;27;20108;-61
2021/06/14 04:08:25;;;;;;;11.50;7.17;;;14.00;99.90;;;;;;5260706;27;20108;-61
2021/06/14 04:10:52;;;;;;;12.13;7.20;;;14.10;99.90;;;;;;5260969;27;20157;-61
2021/06/14 04:13:19;;;;;;;9.17;6.13;;;14.20;99.90;;;;;;5261202;27;20137;-60
2021/06/14 04:15:49;;;;;;;11.77;6.70;;;14.20;99.90;;;;;;5262823;27;20107;-61
2021/06/14 04:18:15;;;;;;;11.03;6.77;;;14.20;99.90;;;;;;5262285;27;20108;-61
2021/06/14 04:20:42;;;;;;;11.20;6.23;;;14.30;99.90;;;;;;5260753;27;20547;-59
2021/06/14 04:23:09;;;;;;;8.70;6.03;;;14.30;99.90;;;;;;5263054;27;20126;-60
2021/06/14 04:25:36;;;;;;;13.00;6.30;;;14.40;99.90;;;;;;5262330;27;20131;-62
2021/06/14 04:28:06;;;;;;;13.50;6.83;;;14.50;99.90;;;;;;5262072;27;20173;-60
2021/06/14 04:30:33;;;;;;;11.63;6.97;;;14.60;99.90;;;;;;5263873;27;20164;-60
2021/06/14 04:33:01;;;;;;;12.37;7.50;;;14.70;99.90;;;;;;5263047;27;20122;-61
2021/06/14 04:35:28;;;;;;;11.93;6.83;;;14.80;99.90;;;;;;5261773;27;20127;-60
2021/06/14 04:37:55;;;;;;;8.73;6.50;;;14.90;99.90;;;;;;5261261;27;20472;-61
2021/06/14 04:40:22;;;;;;;11.03;6.57;;;15.00;99.90;;;;;;5262675;27;20114;-59
2021/06/14 04:42:49;;;;;;;8.90;6.50;;;15.10;99.90;;;;;;5264373;27;20108;-59
2021/06/14 04:45:16;;;;;;;10.17;6.50;;;15.30;99.90;;;;;;5261615;27;20118;-60
2021/06/14 04:47:46;;;;;;;9.47;6.40;;;15.40;99.90;;;;;;5262045;27;20206;-59
2021/06/14 04:50:15;;;;;;;11.53;6.43;;;15.50;99.90;;;;;;5264350;27;20178;-60
2021/06/14 04:52:41;;;;;;;12.63;7.13;;;15.70;99.90;;;;;;5262263;27;20574;-61
2021/06/14 04:55:09;;;;;;;9.87;7.13;;;15.80;99.90;;;;;;5261873;27;20107;-59
2021/06/14 04:57:36;;;;;;;10.87;6.93;;;15.90;99.90;;;;;;5263944;27;20107;-58
2021/06/14 05:00:04;;;;;;;11.30;8.20;;;15.90;99.90;;;;;;5263551;27;20139;-58
2021/06/14 05:02:31;;;;;;;10.60;8.07;;;16.00;99.90;;;;;;5264213;27;20123;-61
2021/06/14 05:04:58;;;;;;;14.73;7.97;;;16.10;99.90;;;;;;5263793;27;20439;-61
2021/06/14 05:07:26;;;;;;;14.93;8.67;;;16.10;99.90;;;;;;5263437;27;20122;-59
2021/06/14 05:09:55;;;;;;;12.57;8.83;;;16.20;99.90;;;;;;5261118;27;20173;-60
2021/06/14 05:12:22;;;;;;;16.00;8.07;;;16.30;99.90;;;;;;5261426;27;20113;-60
2021/06/14 05:14:49;;;;;;;14.97;8.00;;;16.30;99.90;;;;;;5262275;27;20134;-60
2021/06/14 05:17:17;;;;;;;14.10;7.67;;;16.40;99.90;;;;;;5261667;27;20107;-61
2021/06/14 05:19:44;;;;;;;12.87;7.73;;;16.50;99.90;;;;;;5261574;27;20544;-60
2021/06/14 05:22:11;;;;;;;14.33;9.17;;;16.60;99.90;;;;;;5263247;27;20107;-60
2021/06/14 05:24:41;;;;;;;15.03;9.00;;;16.70;99.90;;;;;;5260908;27;20140;-59
2021/06/14 05:27:09;;;;;;;15.93;9.17;;;16.80;99.90;;;;;;5261062;27;20153;-59
2021/06/14 05:29:36;;;;;;;12.33;8.43;;;16.80;99.90;;;;;;5262430;27;20134;-61
2021/06/14 05:32:02;;;;;;;14.20;9.20;;;17.00;99.90;;;;;;5263461;27;20106;-61
2021/06/14 05:34:29;;;;;;;13.93;9.60;;;17.20;99.90;;;;;;5260700;27;20138;-61
2021/06/14 05:36:56;;;;;;;16.53;9.50;;;17.30;99.90;;;;;;5262658;27;20118;-60
2021/06/14 05:39:23;;;;;;;14.23;9.33;;;17.60;99.80;;;;;;5261587;27;20142;-60
2021/06/14 05:41:51;;;;;;;19.27;10.57;;;17.90;99.20;;;;;;5263556;27;20107;-61
2021/06/14 05:44:18;;;;;;;14.30;9.57;;;19.70;96.10;;;;;;5261516;27;20107;-63
2021/06/14 05:46:45;;;;;;;14.60;9.13;;;23.00;91.60;;;;;;5261206;27;20107;-62
2021/06/14 05:49:14;;;;;;;13.50;8.63;;;26.10;82.20;;;;;;5261198;27;20119;-61
2021/06/14 05:51:41;;;;;;;16.90;9.60;;;27.70;74.60;;;;;;5263816;27;20099;-62
2021/06/14 05:54:08;;;;;;;13.57;9.33;;;27.40;71.10;;;;;;5261352;27;20111;-61
2021/06/14 05:56:35;;;;;;;17.13;10.80;;;25.60;73.10;;;;;;5263564;27;20107;-61
2021/06/14 05:59:05;;;;;;;20.07;11.87;;;23.70;76.60;;;;;;5262892;27;20107;-61
2021/06/14 06:01:31;;;;;;;14.97;10.37;;;22.30;81.20;;;;;;5261909;27;20130;-60
2021/06/14 06:03:58;;;;;;;15.87;11.03;;;21.50;84.40;;;;;;5261697;27;20137;-60
2021/06/14 06:06:26;;;;;;;15.73;10.57;;;20.80;87.00;;;;;;5261333;27;20100;-59
2021/06/14 06:08:53;;;;;;;16.73;10.80;;;20.20;90.00;;;;;;5261523;27;20107;-60
2021/06/14 06:11:19;;;;;;;15.60;10.47;;;19.80;91.00;;;;;;5260895;27;20107;-59
2021/06/14 06:13:47;;;;;;;13.60;10.67;;;19.60;92.20;;;;;;5260485;27;20123;-60
2021/06/14 06:16:16;;;;;;;20.30;13.10;;;19.50;92.80;;;;;;5261230;27;20544;-59
2021/06/14 06:18:43;;;;;;;18.27;10.57;;;19.50;93.40;;;;;;5260627;27;20104;-59
2021/06/14 06:21:10;;;;;;;18.83;11.90;;;19.40;93.40;;;;;;5261219;27;20126;-59
2021/06/14 06:23:37;;;;;;;16.23;10.33;;;19.40;94.00;;;;;;5262027;27;20107;-60
2021/06/14 06:26:03;;;;;;;15.37;10.73;;;19.30;94.20;;;;;;5260612;27;20189;-59
2021/06/14 06:28:30;;;;;;;22.63;13.13;;;19.30;94.70;;;;;;5260514;27;20150;-59
2021/06/14 06:30:57;;;;;;;21.47;11.10;;;19.30;95.00;;;;;;5259631;27;20122;-59
2021/06/14 06:33:25;;;;;;;18.77;12.13;;;19.30;94.50;;;;;;5262394;27;20467;-59
2021/06/14 06:35:52;;;;;;;15.07;10.80;;;19.30;94.50;;;;;;5262498;27;20386;-59
2021/06/14 06:38:19;;;;;;;16.17;10.20;;;19.40;94.50;;;;;;5262457;27;20108;-59
2021/06/14 06:40:46;;;;;;;17.67;10.87;;;19.40;94.40;;;;;;5260917;27;20125;-58
2021/06/14 06:43:13;;;;;;;20.60;11.27;;;19.50;94.40;;;;;;5260890;27;20156;-60
2021/06/14 06:45:40;;;;;;;18.57;11.30;;;19.60;94.50;;;;;;5260631;27;20108;-60
2021/06/14 06:48:07;;;;;;;16.13;11.90;;;19.70;94.10;;;;;;5262394;27;20118;-59
2021/06/14 06:50:36;;;;;;;14.77;11.43;;;19.70;94.20;;;;;;5263520;27;20563;-60
2021/06/14 06:53:03;;;;;;;15.60;11.33;;;19.80;94.20;;;;;;5260280;27;20107;-60
2021/06/14 06:55:31;;;;;;;17.67;11.23;;;19.90;94.60;;;;;;5263330;27;20488;-60
2021/06/14 06:57:58;;;;;;;18.10;12.10;;;20.00;94.40;;;;;;5262929;27;20138;-60
2021/06/14 07:00:26;;;;;;;20.53;12.37;;;20.20;93.90;;;;;;5263214;27;20107;-59
2021/06/14 07:02:53;;;;;;;15.80;11.60;;;20.20;93.60;;;;;;5263136;27;20160;-60
2021/06/14 07:05:20;;;;;;;20.63;12.90;;;20.30;93.70;;;;;;5260981;27;20108;-60
2021/06/14 07:07:48;;;;;;;21.03;12.37;;;20.40;93.70;;;;;;5262808;27;20142;-60
2021/06/14 07:10:17;;;;;;;21.40;13.27;;;20.50;93.30;;;;;;5260180;27;20119;-60
2021/06/14 07:12:44;;;;;;;20.60;12.50;;;20.50;92.90;;;;;;5263204;27;20118;-60
2021/06/14 07:15:12;;;;;;;17.23;12.50;;;20.50;92.90;;;;;;5262450;27;20107;-61
2021/06/14 07:17:42;;;;;;;13.90;11.07;;;20.70;92.50;;;;;;5260913;27;20108;-61
2021/06/14 07:20:10;;;;;;;19.77;12.73;;;20.80;92.40;;;;;;5261048;27;20119;-60
2021/06/14 07:22:37;;;;;;;15.33;12.63;;;20.90;92.30;;;;;;5261494;27;20116;-61
2021/06/14 07:25:09;;;;;;;18.03;11.30;;;21.20;92.10;;;;;;5262503;27;20166;-60
2021/06/14 07:27:36;;;;;;;20.20;12.10;;;21.50;90.40;;;;;;5263164;27;20119;-59
2021/06/14 07:30:05;;;;;;;19.40;12.60;;;22.70;89.00;;;;;;5261167;27;20106;-61
2021/06/14 07:32:32;;;;;;;17.73;10.47;;;23.00;87.60;;;;;;5260081;27;20169;-63
2021/06/14 07:35:03;;;;;;;13.97;11.07;;;23.60;86.10;;;;;;5261102;27;20428;-62
2021/06/14 07:37:30;;;;;;;19.03;12.50;;;23.80;84.70;;;;;;5261978;27;20107;-62
2021/06/14 07:39:56;;;;;;;17.90;10.33;;;23.50;83.90;;;;;;5260670;27;20161;-60
2021/06/14 07:42:25;;;;;;;16.33;9.83;;;23.50;83.10;;;;;;5263206;27;20251;-63
2021/06/14 07:44:52;;;;;;;19.03;11.13;;;24.30;81.80;;;;;;5260765;27;20123;-62
2021/06/14 07:47:19;;;;;;;20.80;12.23;;;25.10;78.30;;;;;;5261013;27;20107;-62
2021/06/14 07:49:46;;;;;;;16.27;9.88;;;25.00;77.50;;;;;;5260460;27;20107;-59
2021/06/14 07:52:12;;;;;;;14.25;9.90;;;25.40;78.00;;;;;;5263199;27;20435;-60
2021/06/14 07:54:39;;;;;;;16.90;11.02;;;27.60;74.00;;;;;;5262898;27;20130;-61
2021/06/14 07:57:07;;;;;;;17.70;11.23;;;31.80;63.60;;;;;;5260716;27;20107;-60
2021/06/14 07:59:36;;;;;;;18.45;11.80;;;32.80;58.20;;;;;;5260272;27;20149;-59
2021/06/14 08:02:03;;;;;;;20.30;10.95;;;32.40;55.50;;;;;;5263123;27;20108;-60
2021/06/14 08:04:30;;;;;;;16.42;10.77;;;35.30;52.70;;;;;;5261092;27;20103;-62
2021/06/14 08:09:38;;;;;;;13.80;7.57;;;46.70;37.50;;;;;;5264175;27;20158;-59
2021/06/14 08:12:06;;;;;;;13.38;8.10;;;50.60;32.80;;;;;;5263000;27;20143;-60
2021/06/14 08:14:33;;;;;;;17.00;8.93;;;53.00;31.20;;;;;;5262100;27;20131;-61
2021/06/14 08:17:03;;;;;;;17.80;11.00;;;54.20;29.20;;;;;;5262064;27;20107;-59
2021/06/14 08:19:36;;;;;;;13.50;9.68;;;54.80;28.60;;;;;;5261984;27;20515;-61
2021/06/14 08:27:29;;;;;;;10.05;7.30;;;55.50;27.50;;;;;;5261873;27;20118;-62
2021/06/14 08:29:55;;;;;;;10.18;8.25;;;56.50;27.50;;;;;;5261441;27;20126;-62
2021/06/14 08:32:24;;;;;;;12.07;7.62;;;57.10;26.90;;;;;;5264477;27;20107;-61
2021/06/14 08:34:52;;;;;;;11.20;6.65;;;57.80;26.70;;;;;;5263815;27;20543;-63
2021/06/14 08:37:22;;;;;;;20.17;7.55;;;57.60;26.40;;;;;;5261970;27;20118;-62
2021/06/14 08:39:48;;;;;;;21.52;7.82;;;57.80;26.20;;;;;;5262023;27;20107;-63
2021/06/14 08:42:15;;;;;;;14.43;7.18;;;57.50;26.10;;;;;;5263210;27;20135;-61
2021/06/14 08:44:43;;;;;;;10.80;6.68;;;58.00;26.30;;;;;;5262953;27;20107;-62
2021/06/14 08:47:11;;;;;;;8.88;6.28;;;57.90;25.90;;;;;;5262794;27;20170;-61
2021/06/14 08:49:39;;;;;;;11.27;6.65;;;57.80;25.80;;;;;;5262936;27;20117;-63
2021/06/14 08:52:07;;;;;;;14.35;6.68;;;57.20;26.10;;;;;;5264384;27;20118;-62
2021/06/14 08:54:34;;;;;;;8.65;5.90;;;57.50;25.90;;;;;;5261565;27;20111;-62
2021/06/14 08:57:02;;;;;;;9.25;5.90;;;57.30;25.70;;;;;;5261919;27;20112;-62
2021/06/14 08:59:29;;;;;;;7.90;5.05;;;57.70;25.70;;;;;;5261822;27;20454;-61
2021/06/14 09:01:56;;;;;;;10.25;6.07;;;58.00;25.60;;;;;;5264115;27;20135;-62
2021/06/14 09:04:22;;;;;;;8.38;4.65;;;56.50;25.30;;;;;;5261506;27;20127;-62
2021/06/14 09:06:51;;;;;;;13.40;5.00;;;56.00;25.80;;;;;;5262220;27;20539;-61
2021/06/14 09:09:18;;;;;;;12.48;4.97;;;56.00;25.60;;;;;;5263948;27;20133;-62
2021/06/14 09:11:52;;;;;;;7.05;4.22;;;56.40;25.60;;;;;;5262059;27;20115;-63
2021/06/14 09:14:22;;;;;;;8.98;4.53;;;57.30;25.60;;;;;;5263209;27;20442;-60
2021/06/14 09:16:51;;;;;;;9.02;4.22;;;56.80;25.20;;;;;;5261664;27;20145;-60
2021/06/14 09:19:27;;;;;;;25.45;5.80;;;56.90;25.30;;;;;;5262918;27;20127;-60
2021/06/14 09:21:56;;;;;;;10.75;5.37;;;57.70;25.50;;;;;;5261644;27;20141;-62
2021/06/14 09:24:25;;;;;;;12.68;5.32;;;57.70;25.40;;;;;;5262160;27;20138;-60
2021/06/14 09:26:53;;;;;;;11.43;4.75;;;57.10;25.60;;;;;;5260799;27;20120;-62
2021/06/14 09:29:28;;;;;;;8.25;5.65;;;55.30;25.60;;;;;;5243564;27;20107;-61
2021/06/14 09:31:58;;;;;;;9.45;5.03;;;56.20;25.40;;;;;;5263940;27;20107;-60
2021/06/14 09:34:37;;;;;;;10.75;4.78;;;55.40;25.50;;;;;;5263928;27;20144;-59
2021/06/14 09:37:07;;;;;;;7.68;4.55;;;56.00;25.50;;;;;;5261392;27;20107;-59
2021/06/14 09:39:39;;;;;;;7.78;4.70;;;55.20;25.40;;;;;;5261681;27;20189;-60
2021/06/14 09:42:17;;;;;;;8.48;4.25;;;54.70;25.60;;;;;;5263728;27;20135;-60
2021/06/14 09:44:45;;;;;;;9.30;4.97;;;55.00;25.40;;;;;;5262120;27;20122;-60
2021/06/14 09:47:13;;;;;;;10.38;4.60;;;54.30;25.60;;;;;;5261592;27;20115;-60
2021/06/14 09:49:41;;;;;;;8.48;4.82;;;53.60;25.80;;;;;;5262381;27;20117;-60
2021/06/14 09:52:22;;;;;;;10.52;4.97;;;52.30;25.80;;;;;;5262547;27;20439;-62
2021/06/14 09:54:49;;;;;;;7.47;4.40;;;50.30;26.80;;;;;;5261437;27;20107;-62
2021/06/14 09:57:25;;;;;;;7.57;4.62;;;46.30;28.00;;;;;;5261512;27;20139;-60
2021/06/14 09:59:52;;;;;;;9.27;4.15;;;42.00;29.00;;;;;;5263861;27;20534;-60
2021/06/14 10:02:20;;;;;;;9.32;4.35;;;38.60;30.90;;;;;;5261300;27;20158;-60
2021/06/14 10:04:47;;;;;;;6.82;4.35;;;36.20;32.10;;;;;;5262576;27;20115;-62
2021/06/14 10:07:17;;;;;;;9.18;4.87;;;34.50;33.90;;;;;;5261401;27;20108;-60
2021/06/14 10:09:46;;;;;;;9.52;4.93;;;33.10;34.80;;;;;;5263889;27;20118;-62
2021/06/14 10:12:18;;;;;;;11.23;4.43;;;32.10;36.20;;;;;;5260718;27;20138;-60
2021/06/14 10:14:53;;;;;;;9.02;4.80;;;31.30;37.10;;;;;;5261362;27;20150;-61
2021/06/14 10:17:34;;;;;;;9.75;5.00;;;30.70;37.90;;;;;;5260932;27;20125;-60
2021/06/14 10:20:16;;;;;;;7.93;4.22;;;30.40;39.50;;;;;;5263812;27;20107;-60
2021/06/14 10:22:45;;;;;;;6.12;3.83;;;30.00;37.60;;;;;;5261293;27;20131;-61
2021/06/14 10:25:15;;;;;;;4.37;3.37;;;29.80;38.50;;;;;;5260840;27;20131;-61
2021/06/14 10:27:41;;;;;;;7.90;4.22;;;29.50;38.30;;;;;;5260736;27;20448;-61
2021/06/14 10:30:12;;;;;;;11.60;4.15;;;29.20;37.30;;;;;;5261034;27;20118;-62
2021/06/14 10:32:41;;;;;;;8.70;4.50;;;29.00;38.50;;;;;;5263326;27;20519;-59
2021/06/14 10:35:10;;;;;;;8.90;4.15;;;28.90;39.40;;;;;;5261125;27;20554;-60
2021/06/14 10:37:42;;;;;;;8.85;4.45;;;28.80;39.90;;;;;;5261093;27;20198;-60
2021/06/14 10:40:13;;;;;;;8.30;3.97;;;28.80;40.10;;;;;;5263062;27;20141;-61
2021/06/14 10:42:41;;;;;;;7.47;3.60;;;28.80;39.70;;;;;;5260434;27;20107;-60
2021/06/14 10:45:09;;;;;;;6.68;3.83;;;28.90;39.00;;;;;;5263585;27;20115;-60
2021/06/14 10:47:36;;;;;;;9.68;4.78;;;28.90;38.70;;;;;;5263125;27;20111;-59
2021/06/14 10:50:04;;;;;;;6.07;4.40;;;28.80;38.80;;;;;;5260727;27;20538;-61
2021/06/14 10:52:38;;;;;;;7.70;3.90;;;28.70;39.60;;;;;;5260898;27;20123;-61
2021/06/14 10:55:09;;;;;;;8.63;4.20;;;28.70;39.60;;;;;;5260872;27;20103;-60
2021/06/14 10:57:38;;;;;;;13.77;4.18;;;28.70;38.30;;;;;;5261099;27;20139;-61
2021/06/14 11:00:19;;;;;;;4.97;2.92;;;28.60;38.30;;;;;;5262257;27;20141;-61
2021/06/14 11:02:52;;;;;;;6.65;2.87;;;28.70;36.90;;;;;;5260566;27;20121;-61
2021/06/14 11:05:31;;;;;;;8.95;3.58;;;28.60;37.10;;;;;;5262267;27;20447;-61
2021/06/14 11:08:10;;;;;;;7.57;3.33;;;28.60;37.10;;;;;;5260267;27;20107;-61
2021/06/14 11:10:36;;;;;;;6.43;3.87;;;28.50;37.20;;;;;;5260667;27;20172;-60
2021/06/14 11:13:09;;;;;;;7.53;3.92;;;28.40;36.60;;;;;;5262949;27;20108;-61
2021/06/14 11:15:37;;;;;;;5.65;3.25;;;28.30;36.50;;;;;;5262383;27;20136;-61
2021/06/14 11:18:06;;;;;;;8.13;3.70;;;28.40;37.40;;;;;;5263345;27;20107;-61
2021/06/14 11:20:39;;;;;;;6.90;3.17;;;28.50;37.20;;;;;;5260948;27;20103;-61
2021/06/14 11:23:06;;;;;;;7.00;3.70;;;28.60;36.50;;;;;;5263332;27;20508;-61
2021/06/14 11:25:42;;;;;;;8.40;3.83;;;28.60;37.30;;;;;;5261089;27;20561;-61
2021/06/14 11:28:28;;;;;;;8.25;4.20;;;28.70;37.40;;;;;;5262759;27;20559;-61
2021/06/14 11:30:55;;;;;;;6.65;3.60;;;28.70;39.10;;;;;;5260102;27;20162;-61
2021/06/14 11:33:26;;;;;;;7.18;4.30;;;28.70;37.90;;;;;;5260730;27;20107;-61
2021/06/14 11:35:53;;;;;;;9.50;4.53;;;28.80;38.70;;;;;;5260717;27;20602;-60
2021/06/14 11:38:22;;;;;;;9.48;4.68;;;28.90;38.50;;;;;;5260756;27;20114;-60
2021/06/14 11:40:57;;;;;;;10.73;4.22;;;29.00;38.50;;;;;;5260978;27;20404;-60
2021/06/14 11:43:29;;;;;;;10.85;4.65;;;29.10;39.40;;;;;;5263081;27;20106;-61
2021/06/14 11:45:57;;;;;;;7.72;4.80;;;29.30;39.80;;;;;;5262344;27;20515;-59
2021/06/14 11:48:26;;;;;;;7.28;4.60;;;29.30;38.80;;;;;;5260456;27;20500;-60
2021/06/14 11:51:03;;;;;;;8.10;4.55;;;29.30;38.50;;;;;;5260561;27;20107;-60
2021/06/14 11:53:30;;;;;;;12.23;5.07;;;29.40;38.40;;;;;;5260527;27;20106;-61
2021/06/14 11:55:58;;;;;;;7.57;4.30;;;29.40;37.90;;;;;;5260241;27;20135;-62
2021/06/14 11:58:33;;;;;;;8.38;4.40;;;29.10;37.70;;;;;;5260452;27;20142;-61
2021/06/14 12:01:06;;;;;;;7.00;4.43;;;28.90;38.50;;;;;;5260763;27;20140;-61
2021/06/14 12:03:33;;;;;;;7.70;4.82;;;28.80;38.60;;;;;;5260602;27;20107;-61
2021/06/14 12:06:00;;;;;;;7.65;4.35;;;28.60;36.90;;;;;;5259973;27;20134;-62
2021/06/14 12:08:28;;;;;;;7.12;4.12;;;28.50;37.10;;;;;;5260553;27;20252;-61
2021/06/14 12:10:57;;;;;;;8.80;4.22;;;28.70;38.30;;;;;;5260744;27;20443;-62
2021/06/14 12:13:27;;;;;;;9.05;4.35;;;28.80;37.30;;;;;;5262920;27;20119;-62
2021/06/14 12:15:56;;;;;;;11.90;5.53;;;29.00;37.00;;;;;;5260512;27;20131;-61
2021/06/14 12:18:23;;;;;;;8.80;4.80;;;29.00;38.00;;;;;;5262868;27;20138;-62
2021/06/14 12:20:54;;;;;;;6.40;4.45;;;29.10;39.40;;;;;;5261114;27;20119;-64
2021/06/14 12:23:21;;;;;;;11.40;5.35;;;29.20;39.10;;;;;;5258657;27;20189;-62
2021/06/14 12:25:50;;;;;;;9.38;4.22;;;29.20;38.30;;;;;;5259817;27;20123;-63
2021/06/14 12:28:19;;;;;;;7.62;4.60;;;29.20;37.30;;;;;;5260437;27;20126;-64
2021/06/14 12:30:48;;;;;;;9.45;5.03;;;29.20;38.30;;;;;;5262326;27;20111;-63
2021/06/14 12:33:24;;;;;;;8.25;5.55;;;29.20;38.70;;;;;;5260505;27;20107;-62
2021/06/14 12:35:52;;;;;;;10.55;5.65;;;29.20;39.20;;;;;;5260178;27;20122;-61
2021/06/14 12:38:18;;;;;;;10.50;5.90;;;29.20;39.80;;;;;;5260070;27;20537;-61
2021/06/14 12:40:45;;;;;;;8.48;5.22;;;29.10;38.80;;;;;;5261231;27;20570;-61
2021/06/14 12:43:12;;;;;;;9.90;4.75;;;29.10;39.60;;;;;;5260325;27;20141;-60
2021/06/14 12:45:40;;;;;;;8.90;4.80;;;29.10;39.80;;;;;;5261181;27;20107;-60
2021/06/14 12:48:11;;;;;;;10.18;4.78;;;29.10;40.30;;;;;;5260481;27;20196;-60
2021/06/14 12:50:41;;;;;;;9.70;6.37;;;29.00;39.10;;;;;;5260810;27;20122;-60
2021/06/14 12:53:09;;;;;;;10.40;5.57;;;29.00;39.00;;;;;;5261684;27;20442;-61
2021/06/14 12:55:37;;;;;;;10.88;5.55;;;29.00;40.90;;;;;;5261832;27;20152;-60
2021/06/14 12:58:11;;;;;;;10.32;5.37;;;29.00;41.10;;;;;;5261314;27;20508;-60